Terminal Aerodrome Forecast
Issued by NWS

Home | Current Version | Previous Version | Text Only | Print | Product List | Glossary On
Versions: 1 2 3 4 5 6 7 8 9 10 11 12 13
000
FTUS46 KPDT 242320
TAFRDM
TAF
KRDM 242320Z 2500/2524 36010KT P6SM SKC
     FM250400 31009KT P6SM SKC
     FM250600 28005KT P6SM SKC
     FM250900 18004KT P6SM SKC
     FM252000 34009G16KT P6SM FEW140 SCT250=

USA.gov is the U.S. government's official web portal to all federal, state and local government web resources and services.